Olbia / Costa Smeralda Airport LIEO

Flugplatz Daten

Name: Olbia / Costa Smeralda Airport

Ident: LIEO

Lat: 40,89870071

Long: 9,517629623

Platzhöhe: 37 ft

IataCode: OLB

City: Olbia

Metar

2022/08/13 17:20
LIEO 131720Z 06007KT CAVOK 28/21 Q1011

Taf

2022/08/13 12:11
TAF LIEO 131100Z 1312/1412 04010KT 9999 BKN040
TEMPO 1312/1317 SHRA FEW020CB
BECMG 1317/1319 VRB05KT
Gewünschte Webcam nicht vorhanden? Dann fügen Sie eine hinzu. Sie wird dann so schnell wie möglich freigeschaltet
Url: Title: